sensor_id;sensor_type;location;lat;lon;timestamp;temperature;humidity
68385;DHT22;55336;43.062;25.626;2023-02-01T00:01:43;1.00;99.90
68385;DHT22;55336;43.062;25.626;2023-02-01T00:04:12;1.00;99.90
68385;DHT22;55336;43.062;25.626;2023-02-01T00:06:38;1.00;99.90
68385;DHT22;55336;43.062;25.626;2023-02-01T00:09:08;1.00;99.90
68385;DHT22;55336;43.062;25.626;2023-02-01T00:11:37;1.00;99.90
68385;DHT22;55336;43.062;25.626;2023-02-01T00:14:06;1.00;99.90
68385;DHT22;55336;43.062;25.626;2023-02-01T00:16:35;1.00;99.90
68385;DHT22;55336;43.062;25.626;2023-02-01T00:19:05;1.00;99.90
68385;DHT22;55336;43.062;25.626;2023-02-01T00:21:31;0.90;99.90
68385;DHT22;55336;43.062;25.626;2023-02-01T00:24:00;0.90;99.90
68385;DHT22;55336;43.062;25.626;2023-02-01T00:26:37;0.80;99.90
68385;DHT22;55336;43.062;25.626;2023-02-01T00:29:04;0.80;99.90
68385;DHT22;55336;43.062;25.626;2023-02-01T00:34:10;0.90;99.90
68385;DHT22;55336;43.062;25.626;2023-02-01T00:36:42;0.90;99.90
68385;DHT22;55336;43.062;25.626;2023-02-01T00:39:11;0.90;99.90
68385;DHT22;55336;43.062;25.626;2023-02-01T00:41:38;0.90;99.90
68385;DHT22;55336;43.062;25.626;2023-02-01T00:44:13;0.90;99.90
68385;DHT22;55336;43.062;25.626;2023-02-01T00:46:41;0.90;99.90
68385;DHT22;55336;43.062;25.626;2023-02-01T00:49:10;0.90;99.90
68385;DHT22;55336;43.062;25.626;2023-02-01T00:51:37;0.90;99.90
68385;DHT22;55336;43.062;25.626;2023-02-01T00:54:05;0.80;99.90
68385;DHT22;55336;43.062;25.626;2023-02-01T00:56:36;0.80;99.90
68385;DHT22;55336;43.062;25.626;2023-02-01T00:59:07;0.80;99.90
68385;DHT22;55336;43.062;25.626;2023-02-01T01:01:35;0.80;99.90
68385;DHT22;55336;43.062;25.626;2023-02-01T01:04:04;0.90;99.90
68385;DHT22;55336;43.062;25.626;2023-02-01T01:06:31;0.90;99.90
68385;DHT22;55336;43.062;25.626;2023-02-01T01:08:57;0.90;99.90
68385;DHT22;55336;43.062;25.626;2023-02-01T01:11:26;1.00;99.90
68385;DHT22;55336;43.062;25.626;2023-02-01T01:13:52;1.00;99.90
68385;DHT22;55336;43.062;25.626;2023-02-01T01:16:20;1.00;99.90
68385;DHT22;55336;43.062;25.626;2023-02-01T01:18:47;1.00;99.90
68385;DHT22;55336;43.062;25.626;2023-02-01T01:21:16;1.10;99.90
68385;DHT22;55336;43.062;25.626;2023-02-01T01:23:42;1.10;99.90
68385;DHT22;55336;43.062;25.626;2023-02-01T01:26:22;1.20;99.90
68385;DHT22;55336;43.062;25.626;2023-02-01T01:28:54;1.30;99.90
68385;DHT22;55336;43.062;25.626;2023-02-01T01:31:26;1.50;99.90
68385;DHT22;55336;43.062;25.626;2023-02-01T01:33:53;1.50;99.90
68385;DHT22;55336;43.062;25.626;2023-02-01T01:36:19;1.70;99.90
68385;DHT22;55336;43.062;25.626;2023-02-01T01:38:51;1.70;99.90
68385;DHT22;55336;43.062;25.626;2023-02-01T01:41:20;1.70;99.90
68385;DHT22;55336;43.062;25.626;2023-02-01T01:46:27;1.70;99.90
68385;DHT22;55336;43.062;25.626;2023-02-01T01:48:56;1.70;99.90
68385;DHT22;55336;43.062;25.626;2023-02-01T01:51:24;1.60;99.90
68385;DHT22;55336;43.062;25.626;2023-02-01T01:53:59;1.60;99.90
68385;DHT22;55336;43.062;25.626;2023-02-01T01:56:33;1.60;99.90
68385;DHT22;55336;43.062;25.626;2023-02-01T01:59:01;1.60;99.90
68385;DHT22;55336;43.062;25.626;2023-02-01T02:01:27;1.60;99.90
68385;DHT22;55336;43.062;25.626;2023-02-01T02:03:53;1.30;99.90
68385;DHT22;55336;43.062;25.626;2023-02-01T02:06:33;1.50;99.90
68385;DHT22;55336;43.062;25.626;2023-02-01T02:09:00;1.50;99.90
68385;DHT22;55336;43.062;25.626;2023-02-01T02:11:32;1.50;99.90
68385;DHT22;55336;43.062;25.626;2023-02-01T02:13:58;1.50;99.90
68385;DHT22;55336;43.062;25.626;2023-02-01T02:24:52;1.70;99.90
68385;DHT22;55336;43.062;25.626;2023-02-01T02:35:31;1.50;99.90
68385;DHT22;55336;43.062;25.626;2023-02-01T02:40:47;1.40;99.90
68385;DHT22;55336;43.062;25.626;2023-02-01T02:51:41;1.40;99.90
68385;DHT22;55336;43.062;25.626;2023-02-01T02:54:37;1.50;99.90
68385;DHT22;55336;43.062;25.626;2023-02-01T02:57:19;1.50;99.90
68385;DHT22;55336;43.062;25.626;2023-02-01T03:00:13;1.50;99.90
68385;DHT22;55336;43.062;25.626;2023-02-01T03:02:59;1.70;99.90
68385;DHT22;55336;43.062;25.626;2023-02-01T03:05:45;1.80;99.90
68385;DHT22;55336;43.062;25.626;2023-02-01T03:08:15;1.70;99.90
68385;DHT22;55336;43.062;25.626;2023-02-01T03:10:49;1.70;99.90
68385;DHT22;55336;43.062;25.626;2023-02-01T03:13:20;1.70;99.90
68385;DHT22;55336;43.062;25.626;2023-02-01T03:15:57;1.80;99.90
68385;DHT22;55336;43.062;25.626;2023-02-01T03:18:33;1.90;99.90
68385;DHT22;55336;43.062;25.626;2023-02-01T03:21:04;1.90;99.90
68385;DHT22;55336;43.062;25.626;2023-02-01T03:23:32;1.90;99.90
68385;DHT22;55336;43.062;25.626;2023-02-01T03:25:59;1.90;99.90
68385;DHT22;55336;43.062;25.626;2023-02-01T03:28:29;1.90;99.90
68385;DHT22;55336;43.062;25.626;2023-02-01T03:31:09;1.90;99.90
68385;DHT22;55336;43.062;25.626;2023-02-01T03:33:35;1.90;99.90
68385;DHT22;55336;43.062;25.626;2023-02-01T03:38:41;1.90;99.90
68385;DHT22;55336;43.062;25.626;2023-02-01T03:46:30;2.00;99.90
68385;DHT22;55336;43.062;25.626;2023-02-01T03:49:00;2.10;99.90
68385;DHT22;55336;43.062;25.626;2023-02-01T03:51:29;2.00;99.90
68385;DHT22;55336;43.062;25.626;2023-02-01T03:53:58;1.90;99.90
68385;DHT22;55336;43.062;25.626;2023-02-01T03:56:25;1.90;99.90
68385;DHT22;55336;43.062;25.626;2023-02-01T03:58:52;1.90;99.90
68385;DHT22;55336;43.062;25.626;2023-02-01T04:01:29;1.80;99.90
68385;DHT22;55336;43.062;25.626;2023-02-01T04:03:56;1.70;99.90
68385;DHT22;55336;43.062;25.626;2023-02-01T04:06:23;1.80;99.90
68385;DHT22;55336;43.062;25.626;2023-02-01T04:08:51;1.70;99.90
68385;DHT22;55336;43.062;25.626;2023-02-01T04:11:17;1.70;99.90
68385;DHT22;55336;43.062;25.626;2023-02-01T04:13:48;1.60;99.90
68385;DHT22;55336;43.062;25.626;2023-02-01T04:16:14;1.50;99.90
68385;DHT22;55336;43.062;25.626;2023-02-01T04:18:40;1.40;99.90
68385;DHT22;55336;43.062;25.626;2023-02-01T04:21:06;1.40;99.90
68385;DHT22;55336;43.062;25.626;2023-02-01T04:23:32;1.40;99.90
68385;DHT22;55336;43.062;25.626;2023-02-01T04:26:00;1.30;99.90
68385;DHT22;55336;43.062;25.626;2023-02-01T04:28:27;1.30;99.90
68385;DHT22;55336;43.062;25.626;2023-02-01T04:30:57;1.20;99.90
68385;DHT22;55336;43.062;25.626;2023-02-01T04:33:26;1.20;99.90
68385;DHT22;55336;43.062;25.626;2023-02-01T04:35:55;1.10;99.90
68385;DHT22;55336;43.062;25.626;2023-02-01T04:38:27;1.10;99.90
68385;DHT22;55336;43.062;25.626;2023-02-01T04:40:59;1.00;99.90
68385;DHT22;55336;43.062;25.626;2023-02-01T04:43:27;1.00;99.90
68385;DHT22;55336;43.062;25.626;2023-02-01T04:45:56;0.90;99.90
68385;DHT22;55336;43.062;25.626;2023-02-01T04:48:22;0.90;99.90
68385;DHT22;55336;43.062;25.626;2023-02-01T04:50:49;0.80;99.90
68385;DHT22;55336;43.062;25.626;2023-02-01T04:53:20;0.70;99.90
68385;DHT22;55336;43.062;25.626;2023-02-01T04:55:47;0.60;99.90
68385;DHT22;55336;43.062;25.626;2023-02-01T04:58:16;0.50;99.90
68385;DHT22;55336;43.062;25.626;2023-02-01T05:00:49;0.40;99.90
68385;DHT22;55336;43.062;25.626;2023-02-01T05:03:19;0.30;99.90
68385;DHT22;55336;43.062;25.626;2023-02-01T05:05:46;0.20;99.90
68385;DHT22;55336;43.062;25.626;2023-02-01T05:08:12;0.10;99.90
68385;DHT22;55336;43.062;25.626;2023-02-01T05:10:38;0.00;99.90
68385;DHT22;55336;43.062;25.626;2023-02-01T05:13:12;-0.10;99.90
68385;DHT22;55336;43.062;25.626;2023-02-01T05:15:56;-0.20;99.90
68385;DHT22;55336;43.062;25.626;2023-02-01T05:18:22;-0.30;99.90
68385;DHT22;55336;43.062;25.626;2023-02-01T05:20:51;-0.40;99.90
68385;DHT22;55336;43.062;25.626;2023-02-01T05:23:19;-0.50;99.90
68385;DHT22;55336;43.062;25.626;2023-02-01T05:25:48;-0.50;99.90
68385;DHT22;55336;43.062;25.626;2023-02-01T05:28:14;-0.70;99.90
68385;DHT22;55336;43.062;25.626;2023-02-01T05:30:40;-0.70;99.90
68385;DHT22;55336;43.062;25.626;2023-02-01T05:33:06;-0.80;99.90
68385;DHT22;55336;43.062;25.626;2023-02-01T05:35:32;-0.80;99.90
68385;DHT22;55336;43.062;25.626;2023-02-01T05:38:01;-0.90;99.90
68385;DHT22;55336;43.062;25.626;2023-02-01T05:40:29;-0.80;99.90
68385;DHT22;55336;43.062;25.626;2023-02-01T05:42:55;-0.90;99.90
68385;DHT22;55336;43.062;25.626;2023-02-01T05:45:21;-0.90;99.90
68385;DHT22;55336;43.062;25.626;2023-02-01T05:47:47;-1.00;99.90
68385;DHT22;55336;43.062;25.626;2023-02-01T05:50:16;-1.10;99.90
68385;DHT22;55336;43.062;25.626;2023-02-01T05:52:45;-1.10;99.90
68385;DHT22;55336;43.062;25.626;2023-02-01T05:55:18;-1.10;99.90
68385;DHT22;55336;43.062;25.626;2023-02-01T05:57:46;-1.20;99.90
68385;DHT22;55336;43.062;25.626;2023-02-01T06:00:13;-1.30;99.90
68385;DHT22;55336;43.062;25.626;2023-02-01T06:02:41;-1.40;99.90
68385;DHT22;55336;43.062;25.626;2023-02-01T06:05:08;-1.50;99.90
68385;DHT22;55336;43.062;25.626;2023-02-01T06:07:36;-1.50;99.90
68385;DHT22;55336;43.062;25.626;2023-02-01T06:10:02;-1.60;99.90
68385;DHT22;55336;43.062;25.626;2023-02-01T06:12:32;-1.60;99.90
68385;DHT22;55336;43.062;25.626;2023-02-01T06:14:58;-1.60;99.90
68385;DHT22;55336;43.062;25.626;2023-02-01T06:17:24;-1.60;99.90
68385;DHT22;55336;43.062;25.626;2023-02-01T06:19:50;-1.60;99.90
68385;DHT22;55336;43.062;25.626;2023-02-01T06:22:16;-1.60;99.90
68385;DHT22;55336;43.062;25.626;2023-02-01T06:24:42;-1.60;99.90
68385;DHT22;55336;43.062;25.626;2023-02-01T06:27:07;-1.60;99.90
68385;DHT22;55336;43.062;25.626;2023-02-01T06:29:34;-1.60;99.90
68385;DHT22;55336;43.062;25.626;2023-02-01T06:32:00;-1.60;99.90
68385;DHT22;55336;43.062;25.626;2023-02-01T06:34:26;-1.50;99.90
68385;DHT22;55336;43.062;25.626;2023-02-01T06:36:52;-1.30;99.90
68385;DHT22;55336;43.062;25.626;2023-02-01T06:39:20;-1.10;99.90
68385;DHT22;55336;43.062;25.626;2023-02-01T06:41:46;-1.00;99.90
68385;DHT22;55336;43.062;25.626;2023-02-01T06:44:12;-0.90;99.90
68385;DHT22;55336;43.062;25.626;2023-02-01T06:46:38;-0.70;99.90
68385;DHT22;55336;43.062;25.626;2023-02-01T06:49:04;-0.70;99.90
68385;DHT22;55336;43.062;25.626;2023-02-01T06:51:30;-0.70;99.90
68385;DHT22;55336;43.062;25.626;2023-02-01T06:53:56;-0.80;99.90
68385;DHT22;55336;43.062;25.626;2023-02-01T06:56:22;-0.50;99.90
68385;DHT22;55336;43.062;25.626;2023-02-01T06:58:48;-0.40;99.90
68385;DHT22;55336;43.062;25.626;2023-02-01T07:01:14;-0.30;99.90
68385;DHT22;55336;43.062;25.626;2023-02-01T07:03:40;-0.20;99.90
68385;DHT22;55336;43.062;25.626;2023-02-01T07:06:06;-0.10;99.90
68385;DHT22;55336;43.062;25.626;2023-02-01T07:08:32;0.00;99.90
68385;DHT22;55336;43.062;25.626;2023-02-01T07:11:05;0.10;99.90
68385;DHT22;55336;43.062;25.626;2023-02-01T07:13:31;0.10;99.90
68385;DHT22;55336;43.062;25.626;2023-02-01T07:16:00;0.20;99.90
68385;DHT22;55336;43.062;25.626;2023-02-01T07:18:27;0.40;99.90
68385;DHT22;55336;43.062;25.626;2023-02-01T07:20:53;0.60;99.90
68385;DHT22;55336;43.062;25.626;2023-02-01T07:23:19;0.90;99.90
68385;DHT22;55336;43.062;25.626;2023-02-01T07:25:45;1.10;99.90
68385;DHT22;55336;43.062;25.626;2023-02-01T07:28:11;1.40;99.90
68385;DHT22;55336;43.062;25.626;2023-02-01T07:30:37;1.50;99.90
68385;DHT22;55336;43.062;25.626;2023-02-01T07:33:03;1.70;99.90
68385;DHT22;55336;43.062;25.626;2023-02-01T07:35:28;1.90;99.90
68385;DHT22;55336;43.062;25.626;2023-02-01T07:37:54;2.10;99.90
68385;DHT22;55336;43.062;25.626;2023-02-01T07:40:20;2.20;99.90
68385;DHT22;55336;43.062;25.626;2023-02-01T07:42:50;2.50;99.90
68385;DHT22;55336;43.062;25.626;2023-02-01T07:45:16;2.70;99.90
68385;DHT22;55336;43.062;25.626;2023-02-01T07:47:41;2.90;99.90
68385;DHT22;55336;43.062;25.626;2023-02-01T07:50:07;3.10;99.90
68385;DHT22;55336;43.062;25.626;2023-02-01T07:52:33;3.20;99.90
68385;DHT22;55336;43.062;25.626;2023-02-01T07:54:59;3.30;99.90
68385;DHT22;55336;43.062;25.626;2023-02-01T07:57:24;3.50;99.90
68385;DHT22;55336;43.062;25.626;2023-02-01T07:59:50;3.70;99.90
68385;DHT22;55336;43.062;25.626;2023-02-01T08:02:34;3.80;99.90
68385;DHT22;55336;43.062;25.626;2023-02-01T08:05:00;4.00;99.90
68385;DHT22;55336;43.062;25.626;2023-02-01T08:07:25;4.00;99.90
68385;DHT22;55336;43.062;25.626;2023-02-01T08:09:51;4.10;99.90
68385;DHT22;55336;43.062;25.626;2023-02-01T08:12:17;4.30;99.90
68385;DHT22;55336;43.062;25.626;2023-02-01T08:14:43;4.70;99.90
68385;DHT22;55336;43.062;25.626;2023-02-01T08:17:09;5.00;99.90
68385;DHT22;55336;43.062;25.626;2023-02-01T08:19:35;5.40;99.90
68385;DHT22;55336;43.062;25.626;2023-02-01T08:22:00;5.80;99.90
68385;DHT22;55336;43.062;25.626;2023-02-01T08:24:31;5.70;99.90
68385;DHT22;55336;43.062;25.626;2023-02-01T08:26:57;6.10;99.90
68385;DHT22;55336;43.062;25.626;2023-02-01T08:29:23;6.00;99.90
68385;DHT22;55336;43.062;25.626;2023-02-01T08:31:49;5.80;99.90
68385;DHT22;55336;43.062;25.626;2023-02-01T08:34:16;6.30;99.90
68385;DHT22;55336;43.062;25.626;2023-02-01T08:36:41;6.50;99.90
68385;DHT22;55336;43.062;25.626;2023-02-01T08:39:08;6.90;99.90
68385;DHT22;55336;43.062;25.626;2023-02-01T08:41:34;6.90;99.90
68385;DHT22;55336;43.062;25.626;2023-02-01T08:44:00;6.70;99.90
68385;DHT22;55336;43.062;25.626;2023-02-01T08:46:26;6.20;99.90
68385;DHT22;55336;43.062;25.626;2023-02-01T08:48:52;6.60;99.90
68385;DHT22;55336;43.062;25.626;2023-02-01T08:51:19;6.20;99.90
68385;DHT22;55336;43.062;25.626;2023-02-01T08:53:45;6.20;99.90
68385;DHT22;55336;43.062;25.626;2023-02-01T08:56:12;6.20;99.90
68385;DHT22;55336;43.062;25.626;2023-02-01T08:58:38;5.90;99.90
68385;DHT22;55336;43.062;25.626;2023-02-01T09:01:04;5.80;99.90
68385;DHT22;55336;43.062;25.626;2023-02-01T09:03:31;5.70;99.90
68385;DHT22;55336;43.062;25.626;2023-02-01T09:06:00;5.90;99.90
68385;DHT22;55336;43.062;25.626;2023-02-01T09:08:26;5.80;99.90
68385;DHT22;55336;43.062;25.626;2023-02-01T09:10:58;5.60;99.90
68385;DHT22;55336;43.062;25.626;2023-02-01T09:13:23;5.50;99.90
68385;DHT22;55336;43.062;25.626;2023-02-01T09:15:50;5.80;99.90
68385;DHT22;55336;43.062;25.626;2023-02-01T09:18:16;5.80;99.90
68385;DHT22;55336;43.062;25.626;2023-02-01T09:20:42;5.80;99.90
68385;DHT22;55336;43.062;25.626;2023-02-01T09:23:08;5.80;99.90
68385;DHT22;55336;43.062;25.626;2023-02-01T09:25:33;5.80;99.90
68385;DHT22;55336;43.062;25.626;2023-02-01T09:27:59;5.90;99.90
68385;DHT22;55336;43.062;25.626;2023-02-01T09:30:25;5.90;99.90
68385;DHT22;55336;43.062;25.626;2023-02-01T09:32:51;5.90;99.90
68385;DHT22;55336;43.062;25.626;2023-02-01T09:35:16;6.20;99.90
68385;DHT22;55336;43.062;25.626;2023-02-01T09:37:42;6.40;99.90
68385;DHT22;55336;43.062;25.626;2023-02-01T09:40:10;6.60;99.90
68385;DHT22;55336;43.062;25.626;2023-02-01T09:45:22;6.30;99.90
68385;DHT22;55336;43.062;25.626;2023-02-01T09:47:58;6.20;99.90
68385;DHT22;55336;43.062;25.626;2023-02-01T09:51:10;6.50;99.90
68385;DHT22;55336;43.062;25.626;2023-02-01T09:53:20;7.10;99.90
68385;DHT22;55336;43.062;25.626;2023-02-01T09:55:51;7.50;99.90
68385;DHT22;55336;43.062;25.626;2023-02-01T09:58:22;8.30;91.00
68385;DHT22;55336;43.062;25.626;2023-02-01T10:00:53;8.90;87.70
68385;DHT22;55336;43.062;25.626;2023-02-01T10:03:20;8.50;88.20
68385;DHT22;55336;43.062;25.626;2023-02-01T10:08:33;7.80;86.30
68385;DHT22;55336;43.062;25.626;2023-02-01T10:11:27;7.40;89.00
68385;DHT22;55336;43.062;25.626;2023-02-01T10:13:54;8.50;88.40
68385;DHT22;55336;43.062;25.626;2023-02-01T10:19:29;7.90;84.10
68385;DHT22;55336;43.062;25.626;2023-02-01T10:29:37;9.10;82.70
68385;DHT22;55336;43.062;25.626;2023-02-01T10:32:15;8.40;78.80
68385;DHT22;55336;43.062;25.626;2023-02-01T10:34:42;8.20;85.50
68385;DHT22;55336;43.062;25.626;2023-02-01T10:37:24;8.40;83.90
68385;DHT22;55336;43.062;25.626;2023-02-01T10:39:55;8.10;84.20
68385;DHT22;55336;43.062;25.626;2023-02-01T10:42:24;8.70;82.50
68385;DHT22;55336;43.062;25.626;2023-02-01T10:44:50;8.50;81.00
68385;DHT22;55336;43.062;25.626;2023-02-01T10:47:16;9.40;79.00
68385;DHT22;55336;43.062;25.626;2023-02-01T10:50:16;9.90;80.20
68385;DHT22;55336;43.062;25.626;2023-02-01T10:52:38;10.00;74.00
68385;DHT22;55336;43.062;25.626;2023-02-01T10:57:56;9.20;74.40
68385;DHT22;55336;43.062;25.626;2023-02-01T11:00:23;9.00;75.60
68385;DHT22;55336;43.062;25.626;2023-02-01T11:02:48;9.30;74.70
68385;DHT22;55336;43.062;25.626;2023-02-01T11:05:15;9.30;76.10
68385;DHT22;55336;43.062;25.626;2023-02-01T11:07:46;9.30;75.00
68385;DHT22;55336;43.062;25.626;2023-02-01T11:10:56;9.10;74.10
68385;DHT22;55336;43.062;25.626;2023-02-01T11:13:05;8.70;75.10
68385;DHT22;55336;43.062;25.626;2023-02-01T11:15:30;8.90;79.10
68385;DHT22;55336;43.062;25.626;2023-02-01T11:17:56;9.00;78.50
68385;DHT22;55336;43.062;25.626;2023-02-01T11:22:59;9.40;77.00
68385;DHT22;55336;43.062;25.626;2023-02-01T11:25:25;9.10;73.40
68385;DHT22;55336;43.062;25.626;2023-02-01T11:27:54;9.00;73.60
68385;DHT22;55336;43.062;25.626;2023-02-01T11:30:39;8.90;75.80
68385;DHT22;55336;43.062;25.626;2023-02-01T11:33:06;9.00;76.30
68385;DHT22;55336;43.062;25.626;2023-02-01T11:35:33;8.80;73.90
68385;DHT22;55336;43.062;25.626;2023-02-01T11:38:09;9.70;76.80
68385;DHT22;55336;43.062;25.626;2023-02-01T11:40:36;9.40;71.30
68385;DHT22;55336;43.062;25.626;2023-02-01T11:43:13;9.90;71.50
68385;DHT22;55336;43.062;25.626;2023-02-01T11:45:39;10.00;71.30
68385;DHT22;55336;43.062;25.626;2023-02-01T11:48:09;9.80;70.00
68385;DHT22;55336;43.062;25.626;2023-02-01T11:53:23;9.90;71.30
68385;DHT22;55336;43.062;25.626;2023-02-01T11:58:48;9.90;72.00
68385;DHT22;55336;43.062;25.626;2023-02-01T12:01:29;9.50;68.60
68385;DHT22;55336;43.062;25.626;2023-02-01T12:06:34;9.00;70.10
68385;DHT22;55336;43.062;25.626;2023-02-01T12:11:36;8.50;69.80
68385;DHT22;55336;43.062;25.626;2023-02-01T12:14:28;8.40;70.00
68385;DHT22;55336;43.062;25.626;2023-02-01T12:19:44;8.40;71.40
68385;DHT22;55336;43.062;25.626;2023-02-01T12:22:25;9.20;73.10
68385;DHT22;55336;43.062;25.626;2023-02-01T12:25:01;10.20;69.50
68385;DHT22;55336;43.062;25.626;2023-02-01T12:33:18;10.10;66.60
68385;DHT22;55336;43.062;25.626;2023-02-01T12:40:58;9.40;68.40
68385;DHT22;55336;43.062;25.626;2023-02-01T12:46:37;8.80;70.60
68385;DHT22;55336;43.062;25.626;2023-02-01T12:51:52;8.80;72.80
68385;DHT22;55336;43.062;25.626;2023-02-01T12:54:22;8.80;71.70
68385;DHT22;55336;43.062;25.626;2023-02-01T12:56:52;8.80;73.30
68385;DHT22;55336;43.062;25.626;2023-02-01T12:59:23;8.90;73.20
68385;DHT22;55336;43.062;25.626;2023-02-01T13:01:58;8.80;73.00
68385;DHT22;55336;43.062;25.626;2023-02-01T13:06:51;9.20;72.20
68385;DHT22;55336;43.062;25.626;2023-02-01T13:11:44;9.60;72.20
68385;DHT22;55336;43.062;25.626;2023-02-01T13:16:42;9.80;69.90
68385;DHT22;55336;43.062;25.626;2023-02-01T13:19:16;9.60;70.00
68385;DHT22;55336;43.062;25.626;2023-02-01T13:21:46;9.30;70.50
68385;DHT22;55336;43.062;25.626;2023-02-01T13:26:56;9.20;72.00
68385;DHT22;55336;43.062;25.626;2023-02-01T13:29:22;8.90;71.40
68385;DHT22;55336;43.062;25.626;2023-02-01T13:34:27;8.90;71.90
68385;DHT22;55336;43.062;25.626;2023-02-01T13:42:26;9.00;70.10
68385;DHT22;55336;43.062;25.626;2023-02-01T13:44:56;9.40;71.90
68385;DHT22;55336;43.062;25.626;2023-02-01T13:47:38;9.70;71.60
68385;DHT22;55336;43.062;25.626;2023-02-01T13:57:48;9.90;68.70
68385;DHT22;55336;43.062;25.626;2023-02-01T14:00:27;10.10;68.30
68385;DHT22;55336;43.062;25.626;2023-02-01T14:15:38;10.00;66.90
68385;DHT22;55336;43.062;25.626;2023-02-01T14:20:49;10.00;68.20
68385;DHT22;55336;43.062;25.626;2023-02-01T14:23:19;9.80;67.40
68385;DHT22;55336;43.062;25.626;2023-02-01T14:25:47;9.40;68.80
68385;DHT22;55336;43.062;25.626;2023-02-01T14:28:23;9.00;70.20
68385;DHT22;55336;43.062;25.626;2023-02-01T14:30:50;9.10;69.90
68385;DHT22;55336;43.062;25.626;2023-02-01T14:33:23;9.30;69.70
68385;DHT22;55336;43.062;25.626;2023-02-01T14:36:11;9.40;69.60
68385;DHT22;55336;43.062;25.626;2023-02-01T14:38:38;9.30;66.40
68385;DHT22;55336;43.062;25.626;2023-02-01T14:41:18;9.00;65.40
68385;DHT22;55336;43.062;25.626;2023-02-01T14:43:49;9.40;66.10
68385;DHT22;55336;43.062;25.626;2023-02-01T14:46:18;9.50;65.80
68385;DHT22;55336;43.062;25.626;2023-02-01T14:48:45;9.10;65.10
68385;DHT22;55336;43.062;25.626;2023-02-01T14:51:13;8.80;65.70
68385;DHT22;55336;43.062;25.626;2023-02-01T14:53:40;8.90;66.60
68385;DHT22;55336;43.062;25.626;2023-02-01T14:56:09;8.60;68.00
68385;DHT22;55336;43.062;25.626;2023-02-01T15:01:23;8.10;70.30
68385;DHT22;55336;43.062;25.626;2023-02-01T15:10:05;7.60;73.30
68385;DHT22;55336;43.062;25.626;2023-02-01T15:12:33;7.30;74.70
68385;DHT22;55336;43.062;25.626;2023-02-01T15:15:18;7.20;75.40
68385;DHT22;55336;43.062;25.626;2023-02-01T15:20:20;7.00;77.00
68385;DHT22;55336;43.062;25.626;2023-02-01T15:22:55;6.80;78.00
68385;DHT22;55336;43.062;25.626;2023-02-01T15:25:37;6.70;78.50
68385;DHT22;55336;43.062;25.626;2023-02-01T15:28:28;6.80;77.20
68385;DHT22;55336;43.062;25.626;2023-02-01T15:31:02;6.70;76.50
68385;DHT22;55336;43.062;25.626;2023-02-01T15:33:31;6.70;76.70
68385;DHT22;55336;43.062;25.626;2023-02-01T15:36:11;6.60;76.30
68385;DHT22;55336;43.062;25.626;2023-02-01T15:41:42;6.40;77.70
68385;DHT22;55336;43.062;25.626;2023-02-01T15:47:04;6.00;82.70
68385;DHT22;55336;43.062;25.626;2023-02-01T15:50:19;5.90;81.90
68385;DHT22;55336;43.062;25.626;2023-02-01T15:52:46;5.70;85.80
68385;DHT22;55336;43.062;25.626;2023-02-01T15:58:13;5.40;88.70
68385;DHT22;55336;43.062;25.626;2023-02-01T16:00:43;5.40;86.50
68385;DHT22;55336;43.062;25.626;2023-02-01T16:03:23;5.40;88.30
68385;DHT22;55336;43.062;25.626;2023-02-01T16:05:59;5.20;93.90
68385;DHT22;55336;43.062;25.626;2023-02-01T16:08:27;5.10;95.10
68385;DHT22;55336;43.062;25.626;2023-02-01T16:13:34;5.20;91.60
68385;DHT22;55336;43.062;25.626;2023-02-01T16:16:00;5.20;91.80
68385;DHT22;55336;43.062;25.626;2023-02-01T16:18:29;5.10;93.00
68385;DHT22;55336;43.062;25.626;2023-02-01T16:21:04;4.90;97.50
68385;DHT22;55336;43.062;25.626;2023-02-01T16:23:53;4.70;98.90
68385;DHT22;55336;43.062;25.626;2023-02-01T16:26:19;4.50;99.90
68385;DHT22;55336;43.062;25.626;2023-02-01T16:28:45;4.30;99.90
68385;DHT22;55336;43.062;25.626;2023-02-01T16:31:12;4.20;99.90
68385;DHT22;55336;43.062;25.626;2023-02-01T16:33:45;3.90;99.90
68385;DHT22;55336;43.062;25.626;2023-02-01T16:36:13;3.70;99.90
68385;DHT22;55336;43.062;25.626;2023-02-01T16:38:42;3.50;99.90
68385;DHT22;55336;43.062;25.626;2023-02-01T16:41:14;3.40;99.90
68385;DHT22;55336;43.062;25.626;2023-02-01T16:43:43;3.20;99.90
68385;DHT22;55336;43.062;25.626;2023-02-01T16:46:12;3.00;99.90
68385;DHT22;55336;43.062;25.626;2023-02-01T16:48:40;2.80;99.90
68385;DHT22;55336;43.062;25.626;2023-02-01T16:55:13;2.40;99.90
68385;DHT22;55336;43.062;25.626;2023-02-01T16:57:44;2.30;99.90
68385;DHT22;55336;43.062;25.626;2023-02-01T17:00:11;2.10;99.90
68385;DHT22;55336;43.062;25.626;2023-02-01T17:06:28;1.80;99.90
68385;DHT22;55336;43.062;25.626;2023-02-01T17:09:08;1.60;99.90
68385;DHT22;55336;43.062;25.626;2023-02-01T17:12:22;1.40;99.90
68385;DHT22;55336;43.062;25.626;2023-02-01T17:21:22;1.40;99.90
68385;DHT22;55336;43.062;25.626;2023-02-01T17:23:50;1.20;99.90
68385;DHT22;55336;43.062;25.626;2023-02-01T17:26:52;1.00;99.90
68385;DHT22;55336;43.062;25.626;2023-02-01T17:29:34;1.00;99.90
68385;DHT22;55336;43.062;25.626;2023-02-01T17:32:15;0.90;99.90
68385;DHT22;55336;43.062;25.626;2023-02-01T17:34:55;0.90;99.90
68385;DHT22;55336;43.062;25.626;2023-02-01T17:37:46;0.80;99.90
68385;DHT22;55336;43.062;25.626;2023-02-01T17:40:33;0.70;99.90
68385;DHT22;55336;43.062;25.626;2023-02-01T17:43:12;0.70;99.90
68385;DHT22;55336;43.062;25.626;2023-02-01T17:45:44;0.50;99.90
68385;DHT22;55336;43.062;25.626;2023-02-01T17:48:58;0.40;99.90
68385;DHT22;55336;43.062;25.626;2023-02-01T17:51:28;0.30;99.90
68385;DHT22;55336;43.062;25.626;2023-02-01T17:54:00;0.10;99.90
68385;DHT22;55336;43.062;25.626;2023-02-01T17:56:50;0.00;99.90
68385;DHT22;55336;43.062;25.626;2023-02-01T18:02:22;-0.40;99.90
68385;DHT22;55336;43.062;25.626;2023-02-01T18:05:12;-0.20;99.90
68385;DHT22;55336;43.062;25.626;2023-02-01T18:18:44;-0.50;99.90
68385;DHT22;55336;43.062;25.626;2023-02-01T18:21:31;-0.60;99.90
68385;DHT22;55336;43.062;25.626;2023-02-01T18:31:02;-0.80;99.90
68385;DHT22;55336;43.062;25.626;2023-02-01T18:37:15;-0.90;99.90
68385;DHT22;55336;43.062;25.626;2023-02-01T18:40:04;-1.00;99.90
68385;DHT22;55336;43.062;25.626;2023-02-01T18:43:15;-1.10;99.90
68385;DHT22;55336;43.062;25.626;2023-02-01T18:46:30;-1.10;99.90
68385;DHT22;55336;43.062;25.626;2023-02-01T18:55:22;-1.30;99.90
68385;DHT22;55336;43.062;25.626;2023-02-01T18:58:03;-1.40;99.90
68385;DHT22;55336;43.062;25.626;2023-02-01T19:00:31;-1.40;99.90
68385;DHT22;55336;43.062;25.626;2023-02-01T19:03:23;-1.40;99.90
68385;DHT22;55336;43.062;25.626;2023-02-01T19:06:25;-1.30;99.90
68385;DHT22;55336;43.062;25.626;2023-02-01T19:12:05;-1.40;99.90
68385;DHT22;55336;43.062;25.626;2023-02-01T19:15:19;-0.90;99.90
68385;DHT22;55336;43.062;25.626;2023-02-01T19:18:07;-1.30;99.90